Time;durP1;ratioP1;P1;durP2;ratioP2;P2;SDS_P1;SDS_P2;PMS_P1;PMS_P2;Temp;Humidity;BMP_temperature;BMP_pressure;BME280_temperature;BME280_humidity;BME280_pressure;Samples;Min_cycle;Max_cycle;Signal;HPM_P1;HPM_P2
2021/12/21 00:01:06;;;;;;;25.60;8.87;;;9.40;99.90;;;;;;5124868;27;20694;-70
2021/12/21 00:03:34;;;;;;;14.30;3.63;;;9.50;99.90;;;;;;5083302;27;20185;-70
2021/12/21 00:06:00;;;;;;;13.90;4.17;;;9.50;99.90;;;;;;5092503;28;20285;-71
2021/12/21 00:08:26;;;;;;;14.97;5.37;;;9.50;99.90;;;;;;5102646;27;20189;-71
2021/12/21 00:10:53;;;;;;;18.03;5.47;;;9.50;99.90;;;;;;5104177;27;20269;-70
2021/12/21 00:13:36;;;;;;;12.73;3.80;;;9.50;99.90;;;;;;5098000;27;20688;-70
2021/12/21 00:16:14;;;;;;;22.60;5.07;;;9.50;99.90;;;;;;5117592;27;20216;-70
2021/12/21 00:19:08;;;;;;;10.73;3.03;;;9.60;99.90;;;;;;5118441;27;20291;-70
2021/12/21 00:21:39;;;;;;;10.33;3.67;;;9.60;99.90;;;;;;5115149;27;20213;-70
2021/12/21 00:24:18;;;;;;;15.00;4.43;;;9.60;99.90;;;;;;5084611;27;20659;-71
2021/12/21 00:26:45;;;;;;;18.57;6.20;;;9.60;99.90;;;;;;5100718;27;20494;-71
2021/12/21 00:29:12;;;;;;;19.73;3.60;;;9.60;99.90;;;;;;5106895;27;20746;-70
2021/12/21 00:31:39;;;;;;;13.53;3.37;;;9.70;99.90;;;;;;5105302;27;20189;-70
2021/12/21 00:34:07;;;;;;;8.40;3.43;;;9.70;99.90;;;;;;5105048;28;20386;-70
2021/12/21 00:36:37;;;;;;;12.87;4.03;;;9.60;99.90;;;;;;5084211;28;20192;-70
2021/12/21 00:39:08;;;;;;;19.00;3.43;;;9.60;99.90;;;;;;5103408;27;20325;-70
2021/12/21 00:41:35;;;;;;;15.13;3.63;;;9.70;99.90;;;;;;5127362;27;20269;-70
2021/12/21 00:44:02;;;;;;;6.97;2.77;;;9.60;99.90;;;;;;5124738;27;20933;-69
2021/12/21 00:46:28;;;;;;;10.03;4.20;;;9.60;99.90;;;;;;5104669;28;20188;-69
2021/12/21 00:49:00;;;;;;;13.53;4.00;;;9.60;99.90;;;;;;5128504;27;20196;-69
2021/12/21 00:51:27;;;;;;;10.53;2.60;;;9.60;99.90;;;;;;5117911;28;20304;-71
2021/12/21 00:53:54;;;;;;;12.97;2.87;;;9.60;99.90;;;;;;5121517;27;20301;-71
2021/12/21 00:56:20;;;;;;;14.00;4.50;;;9.60;99.90;;;;;;5109010;27;20195;-69
2021/12/21 00:58:47;;;;;;;10.10;4.43;;;9.60;99.90;;;;;;5106321;27;20283;-69
2021/12/21 01:01:13;;;;;;;10.57;2.97;;;9.50;99.90;;;;;;5100237;28;20254;-69
2021/12/21 01:03:46;;;;;;;10.60;3.30;;;9.50;99.90;;;;;;5134535;27;20237;-70
2021/12/21 01:08:57;;;;;;;12.23;4.10;;;9.50;99.90;;;;;;5112451;27;20181;-69
2021/12/21 01:11:30;;;;;;;10.77;3.07;;;9.50;99.90;;;;;;5119147;27;20763;-70
2021/12/21 01:17:01;;;;;;;15.90;4.10;;;9.60;99.90;;;;;;5106682;27;20193;-71
2021/12/21 01:19:39;;;;;;;16.60;5.53;;;9.60;99.90;;;;;;5116155;27;20200;-71
2021/12/21 01:27:52;;;;;;;19.97;5.57;;;9.70;99.90;;;;;;5119096;27;20181;-70
2021/12/21 01:30:40;;;;;;;11.40;4.53;;;9.70;99.90;;;;;;5121277;27;20185;-70
2021/12/21 01:35:40;;;;;;;16.77;6.47;;;9.80;99.90;;;;;;5107008;27;20624;-70
2021/12/21 01:41:02;;;;;;;11.90;4.20;;;9.80;99.90;;;;;;5119738;27;20232;-69
2021/12/21 01:51:28;;;;;;;17.80;4.60;;;9.80;99.90;;;;;;5102192;27;20193;-70
2021/12/21 01:53:54;;;;;;;16.00;4.20;;;9.80;99.90;;;;;;5106123;27;20558;-71
2021/12/21 01:56:22;;;;;;;10.73;3.37;;;9.80;99.90;;;;;;5099518;27;21127;-70
2021/12/21 01:58:49;;;;;;;11.23;4.00;;;9.90;99.90;;;;;;5101045;27;20640;-70
2021/12/21 02:01:19;;;;;;;8.10;3.37;;;9.90;99.90;;;;;;5107592;27;20939;-70
2021/12/21 02:03:49;;;;;;;12.77;4.43;;;9.90;99.90;;;;;;5107210;27;20339;-70
2021/12/21 02:06:24;;;;;;;12.80;4.00;;;9.90;99.90;;;;;;5116916;27;20625;-70
2021/12/21 02:08:50;;;;;;;10.40;3.60;;;9.90;99.90;;;;;;5102300;27;20185;-71
2021/12/21 02:11:18;;;;;;;19.27;5.00;;;9.90;99.90;;;;;;5099091;27;20203;-71
2021/12/21 02:13:49;;;;;;;12.53;4.10;;;10.00;99.90;;;;;;5121226;27;20732;-69
2021/12/21 02:16:33;;;;;;;15.53;3.93;;;10.00;99.90;;;;;;5121603;27;20900;-70
2021/12/21 02:19:19;;;;;;;14.50;5.63;;;10.00;99.90;;;;;;5084005;27;20196;-70
2021/12/21 02:21:51;;;;;;;14.93;5.43;;;10.00;99.90;;;;;;5097898;28;20221;-69
2021/12/21 02:24:22;;;;;;;13.00;3.73;;;10.00;99.90;;;;;;5122382;27;20223;-69
2021/12/21 02:29:25;;;;;;;10.87;3.47;;;10.10;99.90;;;;;;5108174;27;20202;-70
2021/12/21 02:31:53;;;;;;;12.07;3.77;;;10.00;99.90;;;;;;5112117;27;20565;-70
2021/12/21 02:34:23;;;;;;;14.07;3.70;;;10.00;99.90;;;;;;5104371;27;20609;-70
2021/12/21 02:36:53;;;;;;;9.43;3.43;;;9.90;99.90;;;;;;5098975;27;20196;-70
2021/12/21 02:39:21;;;;;;;18.60;4.57;;;9.90;99.90;;;;;;5100116;28;20251;-70
2021/12/21 02:41:48;;;;;;;11.23;3.50;;;10.00;99.90;;;;;;5104556;27;20223;-70
2021/12/21 02:44:15;;;;;;;11.07;3.03;;;10.00;99.90;;;;;;5105281;27;20296;-70
2021/12/21 02:46:44;;;;;;;16.53;4.03;;;10.00;99.90;;;;;;5092771;27;20208;-69
2021/12/21 02:49:12;;;;;;;13.10;3.90;;;10.00;99.90;;;;;;5119252;27;20193;-70
2021/12/21 02:51:42;;;;;;;12.83;3.23;;;10.00;99.90;;;;;;5106784;27;20185;-70
2021/12/21 02:54:11;;;;;;;11.07;3.43;;;10.00;99.90;;;;;;5121658;27;20212;-72
2021/12/21 02:56:37;;;;;;;11.93;3.27;;;10.00;99.90;;;;;;5099123;27;20188;-70
2021/12/21 02:59:04;;;;;;;11.03;4.50;;;9.90;99.90;;;;;;5123223;27;20521;-71
2021/12/21 03:01:30;;;;;;;11.33;3.50;;;9.90;99.90;;;;;;5118243;27;20273;-70
2021/12/21 03:03:58;;;;;;;11.17;4.20;;;9.80;99.90;;;;;;5106051;27;20191;-70
2021/12/21 03:06:58;;;;;;;12.57;3.70;;;9.70;99.90;;;;;;5082775;27;20280;-70
2021/12/21 03:09:59;;;;;;;9.60;3.40;;;9.60;99.90;;;;;;5122280;27;20185;-70
2021/12/21 03:12:12;;;;;;;11.63;4.00;;;9.50;99.90;;;;;;5096021;27;20196;-72
2021/12/21 03:14:39;;;;;;;14.60;3.83;;;9.50;99.90;;;;;;5095555;28;20296;-70
2021/12/21 03:17:07;;;;;;;11.27;3.60;;;9.30;99.90;;;;;;5122482;27;20238;-69
2021/12/21 03:19:34;;;;;;;11.37;3.63;;;9.20;99.90;;;;;;5123947;27;20199;-70
2021/12/21 03:22:00;;;;;;;9.87;3.33;;;9.20;99.90;;;;;;5101853;27;20228;-70
2021/12/21 03:24:27;;;;;;;9.43;3.47;;;9.10;99.90;;;;;;5120984;27;20256;-72
2021/12/21 03:26:53;;;;;;;8.63;3.60;;;9.00;99.90;;;;;;5107384;27;20712;-70
2021/12/21 03:29:19;;;;;;;12.53;4.00;;;9.00;99.90;;;;;;5106002;27;20197;-69
2021/12/21 03:31:46;;;;;;;14.93;3.80;;;8.90;99.90;;;;;;5118284;27;20266;-70
2021/12/21 03:34:12;;;;;;;11.50;3.70;;;8.90;99.90;;;;;;5104519;28;20196;-70
2021/12/21 03:36:40;;;;;;;8.77;3.30;;;8.90;99.90;;;;;;5114249;27;20181;-69
2021/12/21 03:39:10;;;;;;;16.00;3.97;;;8.80;99.90;;;;;;5139291;27;20200;-69
2021/12/21 03:41:40;;;;;;;8.77;3.57;;;8.70;99.90;;;;;;5116095;27;20808;-69
2021/12/21 03:44:09;;;;;;;14.27;3.90;;;8.70;99.90;;;;;;5109121;27;20192;-71
2021/12/21 03:46:37;;;;;;;11.43;3.63;;;8.70;99.90;;;;;;5114093;27;20185;-71
2021/12/21 03:49:27;;;;;;;12.07;3.60;;;8.70;99.90;;;;;;5122606;27;20260;-69
2021/12/21 03:51:49;;;;;;;14.10;3.77;;;8.60;99.90;;;;;;5120800;27;20201;-71
2021/12/21 03:54:16;;;;;;;8.27;3.40;;;8.60;99.90;;;;;;5127243;27;20177;-70
2021/12/21 03:56:43;;;;;;;8.90;4.00;;;8.60;99.90;;;;;;5106012;27;20252;-69
2021/12/21 03:59:09;;;;;;;9.60;3.70;;;8.50;99.90;;;;;;5108065;27;20657;-71
2021/12/21 04:01:35;;;;;;;10.43;3.77;;;8.60;99.90;;;;;;5120873;27;20281;-69
2021/12/21 04:04:03;;;;;;;9.57;4.07;;;8.60;99.90;;;;;;5125333;27;20192;-70
2021/12/21 04:06:29;;;;;;;9.50;4.33;;;8.60;99.90;;;;;;5108026;27;20560;-70
2021/12/21 04:08:55;;;;;;;15.57;4.57;;;8.70;99.90;;;;;;5091304;27;21888;-70
2021/12/21 04:11:22;;;;;;;10.03;5.27;;;8.70;99.90;;;;;;5107285;27;20192;-69
2021/12/21 04:13:48;;;;;;;11.50;4.73;;;8.70;99.90;;;;;;5127247;27;20299;-70
2021/12/21 04:16:14;;;;;;;15.10;4.30;;;8.70;99.90;;;;;;5115259;27;20200;-69
2021/12/21 04:18:40;;;;;;;9.43;4.67;;;8.70;99.90;;;;;;5123206;27;20812;-69
2021/12/21 04:21:11;;;;;;;12.73;4.37;;;8.70;99.90;;;;;;5135903;27;20676;-72
2021/12/21 04:23:40;;;;;;;15.97;5.10;;;8.80;99.90;;;;;;5099699;27;20208;-70
2021/12/21 04:26:11;;;;;;;9.83;4.73;;;8.80;99.90;;;;;;5126919;27;20189;-71
2021/12/21 04:28:38;;;;;;;9.47;5.10;;;8.80;99.90;;;;;;5126722;27;20188;-69
2021/12/21 04:31:06;;;;;;;12.10;5.27;;;8.80;99.90;;;;;;5126868;27;20189;-70
2021/12/21 04:33:34;;;;;;;7.83;4.80;;;8.90;99.90;;;;;;5127805;27;20207;-70
2021/12/21 04:36:01;;;;;;;13.70;5.30;;;8.90;99.90;;;;;;5106556;27;20232;-71
2021/12/21 04:38:33;;;;;;;10.17;5.17;;;8.90;99.90;;;;;;5114210;27;20184;-69
2021/12/21 04:41:08;;;;;;;19.23;5.53;;;8.90;99.90;;;;;;5106573;28;20205;-71
2021/12/21 04:43:35;;;;;;;11.37;5.20;;;9.00;99.90;;;;;;5128731;27;20270;-70
2021/12/21 04:46:02;;;;;;;11.97;5.73;;;9.00;99.90;;;;;;5088135;28;20246;-69
2021/12/21 04:48:28;;;;;;;15.00;6.00;;;9.10;99.90;;;;;;5114834;28;20263;-69
2021/12/21 04:50:55;;;;;;;11.00;5.50;;;9.10;99.90;;;;;;5102861;28;20633;-71
2021/12/21 04:53:22;;;;;;;8.57;5.47;;;9.10;99.90;;;;;;5102220;28;20266;-70
2021/12/21 04:55:48;;;;;;;13.10;6.03;;;9.10;99.90;;;;;;5127085;28;20200;-70
2021/12/21 04:58:15;;;;;;;10.07;5.87;;;9.10;99.90;;;;;;5108750;28;20197;-69
2021/12/21 05:00:42;;;;;;;16.47;5.43;;;9.10;99.90;;;;;;5117516;28;20252;-71
2021/12/21 05:03:09;;;;;;;8.60;5.03;;;9.10;99.90;;;;;;5125360;28;20185;-71
2021/12/21 05:05:35;;;;;;;11.67;5.50;;;9.10;99.90;;;;;;5129221;27;20222;-70
2021/12/21 05:08:10;;;;;;;11.70;5.10;;;9.20;99.90;;;;;;5126889;27;20676;-71
2021/12/21 05:10:55;;;;;;;10.63;4.30;;;9.20;99.90;;;;;;5108937;28;20188;-70
2021/12/21 05:13:26;;;;;;;8.03;4.40;;;9.30;99.90;;;;;;5121970;28;20193;-70
2021/12/21 05:15:53;;;;;;;9.77;4.40;;;9.40;99.90;;;;;;5125903;27;20335;-69
2021/12/21 05:18:20;;;;;;;7.40;4.40;;;9.40;99.90;;;;;;5095332;28;20242;-69
2021/12/21 05:20:47;;;;;;;8.50;4.47;;;9.50;99.90;;;;;;5117138;27;20301;-69
2021/12/21 05:23:13;;;;;;;8.47;3.90;;;9.50;99.90;;;;;;5103843;28;20193;-71
2021/12/21 05:25:40;;;;;;;7.03;4.20;;;9.50;99.90;;;;;;5115161;27;20200;-69
2021/12/21 05:28:09;;;;;;;7.03;3.93;;;9.50;99.90;;;;;;5126701;27;20711;-70
2021/12/21 05:30:36;;;;;;;4.83;3.63;;;9.50;99.90;;;;;;5111067;27;20237;-70
2021/12/21 05:33:04;;;;;;;10.63;3.50;;;9.50;99.90;;;;;;5122167;28;20298;-69
2021/12/21 05:35:34;;;;;;;8.67;3.83;;;9.50;99.90;;;;;;5105895;28;20204;-70
2021/12/21 05:38:04;;;;;;;10.07;3.40;;;9.50;99.90;;;;;;5128023;27;20535;-69
2021/12/21 05:40:42;;;;;;;14.30;3.73;;;9.60;99.90;;;;;;5126938;27;20346;-70
2021/12/21 05:43:11;;;;;;;6.83;3.17;;;9.60;99.90;;;;;;5125365;27;20232;-69
2021/12/21 05:45:39;;;;;;;8.73;3.20;;;9.50;99.90;;;;;;5127654;27;20820;-70
2021/12/21 05:48:06;;;;;;;9.17;3.33;;;9.50;99.90;;;;;;5126768;27;20177;-70
2021/12/21 05:50:33;;;;;;;9.73;3.10;;;9.50;99.90;;;;;;5129156;27;20847;-69
2021/12/21 05:53:00;;;;;;;5.27;3.17;;;9.50;99.90;;;;;;5110548;27;20187;-70
2021/12/21 05:55:26;;;;;;;14.97;3.20;;;9.60;99.90;;;;;;5119990;27;20544;-70
2021/12/21 05:57:53;;;;;;;6.40;3.40;;;9.60;99.90;;;;;;5105693;27;20200;-71
2021/12/21 06:00:32;;;;;;;5.63;3.20;;;9.60;99.90;;;;;;5122212;27;20185;-68
2021/12/21 06:02:58;;;;;;;8.13;3.53;;;9.60;99.90;;;;;;5114420;27;20191;-69
2021/12/21 06:05:25;;;;;;;9.80;3.70;;;9.60;99.90;;;;;;5109695;27;20185;-66
2021/12/21 06:07:54;;;;;;;11.10;3.50;;;9.60;99.90;;;;;;5117984;27;20530;-68
2021/12/21 06:10:30;;;;;;;5.90;3.20;;;9.60;99.90;;;;;;5118702;27;20188;-67
2021/12/21 06:26:07;;;;;;;10.60;3.83;;;9.80;99.90;;;;;;5116336;27;20177;-67
2021/12/21 06:28:33;;;;;;;10.83;4.33;;;9.80;99.90;;;;;;5108114;27;20204;-70
2021/12/21 06:31:00;;;;;;;4.60;3.17;;;9.80;99.90;;;;;;5108455;27;20197;-69
2021/12/21 06:33:27;;;;;;;6.77;3.40;;;9.90;99.90;;;;;;5106587;27;20187;-68
2021/12/21 06:35:53;;;;;;;10.80;3.90;;;9.90;99.90;;;;;;5103993;27;20210;-68
2021/12/21 06:38:20;;;;;;;9.73;3.93;;;9.90;99.90;;;;;;5110731;27;20184;-69
2021/12/21 06:40:47;;;;;;;8.03;3.60;;;10.00;99.90;;;;;;5092727;27;20645;-67
2021/12/21 06:43:15;;;;;;;7.83;3.60;;;10.00;99.90;;;;;;5094324;28;20220;-67
2021/12/21 06:51:14;;;;;;;7.53;3.43;;;10.20;99.90;;;;;;5114142;27;20193;-69
2021/12/21 06:53:45;;;;;;;9.53;3.03;;;10.20;99.90;;;;;;5099106;27;20622;-70
2021/12/21 06:56:11;;;;;;;14.17;3.20;;;10.30;99.90;;;;;;5107373;27;20201;-72
2021/12/21 06:58:41;;;;;;;8.07;3.07;;;10.30;99.90;;;;;;5109044;27;20197;-68
2021/12/21 07:01:08;;;;;;;9.83;2.90;;;10.40;99.90;;;;;;5127212;27;20773;-67
2021/12/21 07:03:35;;;;;;;7.63;3.97;;;10.50;99.90;;;;;;5105128;27;20186;-67
2021/12/21 07:06:06;;;;;;;8.53;3.43;;;10.50;99.90;;;;;;5128050;27;20188;-67
2021/12/21 07:08:44;;;;;;;12.17;4.17;;;10.50;99.90;;;;;;5129590;27;20250;-68
2021/12/21 07:19:10;;;;;;;7.97;3.30;;;10.60;99.90;;;;;;5128425;27;20185;-68
2021/12/21 07:21:38;;;;;;;12.97;3.73;;;10.60;99.90;;;;;;5110857;27;20940;-68
2021/12/21 07:24:05;;;;;;;15.60;3.27;;;10.70;99.90;;;;;;5110249;27;20575;-68
2021/12/21 07:26:32;;;;;;;7.47;3.30;;;10.80;99.90;;;;;;5105215;27;20756;-66
2021/12/21 07:28:58;;;;;;;7.90;3.50;;;10.80;99.90;;;;;;5109044;27;20188;-69
2021/12/21 07:31:25;;;;;;;15.03;4.17;;;10.90;99.90;;;;;;5109798;27;20272;-67
2021/12/21 07:33:55;;;;;;;8.67;3.40;;;11.00;99.90;;;;;;5125980;27;20185;-67
2021/12/21 07:36:21;;;;;;;11.93;3.80;;;11.00;99.90;;;;;;5110919;27;20184;-67
2021/12/21 07:38:47;;;;;;;7.60;3.50;;;11.00;99.90;;;;;;5108232;27;20501;-68
2021/12/21 07:41:13;;;;;;;7.17;3.83;;;11.00;99.90;;;;;;5109283;27;20626;-68
2021/12/21 07:43:40;;;;;;;7.77;3.73;;;11.00;99.90;;;;;;5109527;27;20197;-68
2021/12/21 07:46:09;;;;;;;7.73;3.70;;;11.10;99.90;;;;;;5116411;27;20177;-68
2021/12/21 07:48:37;;;;;;;11.60;3.70;;;11.10;99.90;;;;;;5106067;27;20216;-70
2021/12/21 07:51:05;;;;;;;7.63;3.73;;;11.10;99.90;;;;;;5092416;27;20638;-66
2021/12/21 07:53:32;;;;;;;8.80;3.57;;;11.10;99.90;;;;;;5109911;27;20819;-66
2021/12/21 07:56:02;;;;;;;10.87;4.37;;;11.10;99.90;;;;;;5105271;27;20192;-66
2021/12/21 07:58:30;;;;;;;9.03;3.23;;;11.20;99.90;;;;;;5103284;27;20199;-67
2021/12/21 08:01:02;;;;;;;10.50;2.97;;;11.30;99.90;;;;;;5131011;27;20706;-69
2021/12/21 08:03:30;;;;;;;5.80;3.30;;;11.30;99.90;;;;;;5084887;28;20185;-68
2021/12/21 08:05:58;;;;;;;7.50;2.83;;;11.40;99.90;;;;;;5120596;27;20195;-69
2021/12/21 08:08:28;;;;;;;5.10;2.57;;;11.40;99.90;;;;;;5100041;28;20852;-69
2021/12/21 08:11:10;;;;;;;8.87;2.33;;;11.50;99.90;;;;;;5107317;28;20186;-69
2021/12/21 08:13:39;;;;;;;7.40;2.40;;;11.60;99.90;;;;;;5120665;27;20197;-69
2021/12/21 08:16:07;;;;;;;6.63;2.87;;;11.70;99.90;;;;;;5120569;27;20206;-68
2021/12/21 08:18:33;;;;;;;4.53;2.20;;;11.70;99.90;;;;;;5109495;28;20188;-70
2021/12/21 08:21:01;;;;;;;7.67;2.67;;;11.80;99.90;;;;;;5103753;27;20680;-70
2021/12/21 08:23:28;;;;;;;6.20;2.57;;;11.80;99.90;;;;;;5138292;27;20276;-69
2021/12/21 08:25:56;;;;;;;6.63;2.63;;;11.80;99.90;;;;;;5085858;28;20781;-68
2021/12/21 08:28:23;;;;;;;8.83;2.37;;;11.80;99.90;;;;;;5087834;27;20189;-67
2021/12/21 08:30:50;;;;;;;6.93;2.67;;;11.90;99.90;;;;;;5102895;28;20189;-69
2021/12/21 08:33:17;;;;;;;8.97;2.47;;;12.00;99.90;;;;;;5125608;27;20273;-68
2021/12/21 08:35:44;;;;;;;17.03;3.00;;;12.00;99.90;;;;;;5105507;28;20227;-71
2021/12/21 08:38:14;;;;;;;8.13;2.37;;;12.00;99.90;;;;;;5122391;27;20196;-69
2021/12/21 08:40:43;;;;;;;4.50;2.47;;;12.00;99.90;;;;;;5102660;27;20240;-69
2021/12/21 08:43:20;;;;;;;6.53;2.07;;;12.00;99.90;;;;;;5123468;27;20204;-68
2021/12/21 08:45:49;;;;;;;11.77;2.13;;;12.00;99.90;;;;;;5103376;27;20291;-70
2021/12/21 08:48:16;;;;;;;10.93;2.00;;;12.00;99.90;;;;;;5108589;28;20540;-70
2021/12/21 08:50:44;;;;;;;8.23;2.07;;;12.00;99.90;;;;;;5109145;28;20188;-68
2021/12/21 08:53:12;;;;;;;4.87;1.70;;;11.90;99.90;;;;;;5108220;28;20192;-69
2021/12/21 08:55:41;;;;;;;6.47;1.90;;;11.90;99.90;;;;;;5099636;28;20180;-69
2021/12/21 08:58:09;;;;;;;6.53;1.80;;;11.90;99.90;;;;;;5108594;28;20189;-69
2021/12/21 09:00:36;;;;;;;6.43;2.07;;;11.90;99.90;;;;;;5099279;28;20209;-66
2021/12/21 09:03:04;;;;;;;8.03;1.90;;;11.90;99.90;;;;;;5103468;28;20189;-70
2021/12/21 09:05:31;;;;;;;5.37;2.10;;;11.80;99.90;;;;;;5121182;27;20656;-69
2021/12/21 09:08:00;;;;;;;7.70;1.80;;;11.90;99.90;;;;;;5123393;27;20200;-70
2021/12/21 09:10:29;;;;;;;6.30;2.87;;;11.90;99.90;;;;;;5124652;28;20181;-70
2021/12/21 09:12:56;;;;;;;10.67;2.50;;;11.90;99.90;;;;;;5103193;28;20934;-69
2021/12/21 09:15:25;;;;;;;6.23;1.60;;;12.00;99.90;;;;;;5107181;28;20203;-70
2021/12/21 09:17:52;;;;;;;6.87;2.00;;;12.00;99.90;;;;;;5091625;28;20181;-70
2021/12/21 09:20:23;;;;;;;7.03;1.80;;;11.90;99.90;;;;;;5103641;28;20193;-71
2021/12/21 09:22:51;;;;;;;8.03;2.10;;;12.00;99.90;;;;;;5107209;28;20197;-71
2021/12/21 09:25:18;;;;;;;5.37;2.13;;;11.90;99.90;;;;;;5108031;27;20260;-70
2021/12/21 09:27:45;;;;;;;5.73;1.87;;;11.90;99.90;;;;;;5111065;27;20640;-69
2021/12/21 09:30:17;;;;;;;7.83;2.27;;;12.10;99.90;;;;;;5105491;27;20189;-70
2021/12/21 09:32:43;;;;;;;8.27;2.17;;;12.10;99.90;;;;;;5120415;27;20192;-69
2021/12/21 09:35:11;;;;;;;4.50;2.00;;;12.10;99.90;;;;;;5128258;27;20216;-70
2021/12/21 09:37:38;;;;;;;6.70;2.10;;;12.20;99.90;;;;;;5107449;28;20245;-70
2021/12/21 09:40:10;;;;;;;9.33;2.00;;;12.10;99.90;;;;;;5094073;27;20190;-69
2021/12/21 09:42:37;;;;;;;8.13;2.07;;;12.10;99.90;;;;;;5094261;27;20189;-69
2021/12/21 09:45:06;;;;;;;10.33;2.43;;;12.10;99.90;;;;;;5119070;27;20193;-70
2021/12/21 09:47:33;;;;;;;11.97;2.43;;;12.00;99.90;;;;;;5125755;27;20192;-71
2021/12/21 09:50:01;;;;;;;6.73;2.33;;;12.00;99.90;;;;;;5106747;27;20279;-69
2021/12/21 09:52:29;;;;;;;9.53;2.10;;;12.00;99.90;;;;;;5082051;28;20189;-69
2021/12/21 09:55:05;;;;;;;9.27;2.40;;;12.00;99.90;;;;;;5107158;27;20193;-71
2021/12/21 09:57:32;;;;;;;6.90;2.10;;;12.10;99.90;;;;;;5129354;27;20219;-69
2021/12/21 09:59:59;;;;;;;7.03;2.30;;;12.10;99.90;;;;;;5092522;27;20238;-69
2021/12/21 10:02:26;;;;;;;8.90;2.50;;;12.20;99.90;;;;;;5121638;27;20205;-70
2021/12/21 10:05:03;;;;;;;6.90;2.13;;;12.10;99.90;;;;;;5107522;27;20665;-72
2021/12/21 10:07:30;;;;;;;7.23;2.03;;;12.10;99.90;;;;;;5127501;27;20204;-70
2021/12/21 10:10:22;;;;;;;9.93;2.13;;;12.20;99.90;;;;;;5104411;27;20188;-69
2021/12/21 10:12:50;;;;;;;6.10;2.00;;;12.40;99.90;;;;;;5119964;27;20209;-70
2021/12/21 10:15:24;;;;;;;7.83;2.17;;;12.50;99.90;;;;;;5114227;27;20656;-71
2021/12/21 10:18:03;;;;;;;6.27;2.30;;;12.60;99.90;;;;;;5122353;27;20493;-71
2021/12/21 10:20:46;;;;;;;9.70;2.67;;;12.70;99.90;;;;;;5099903;27;20276;-72
2021/12/21 10:23:35;;;;;;;10.37;2.40;;;12.80;99.90;;;;;;5107176;27;20264;-70
2021/12/21 10:26:06;;;;;;;9.10;2.50;;;12.80;99.90;;;;;;5104202;27;20197;-70
2021/12/21 10:28:36;;;;;;;7.57;2.00;;;12.80;99.90;;;;;;5101433;28;20186;-70
2021/12/21 10:31:36;;;;;;;5.47;2.00;;;12.80;99.90;;;;;;5082621;27;20194;-70
2021/12/21 10:34:09;;;;;;;7.50;2.13;;;12.80;99.90;;;;;;5098367;27;20197;-70
2021/12/21 10:36:46;;;;;;;5.80;1.90;;;12.80;99.90;;;;;;5113298;27;20198;-70
2021/12/21 10:39:26;;;;;;;3.50;1.63;;;12.80;99.90;;;;;;5109355;27;20708;-70
2021/12/21 10:42:00;;;;;;;7.63;2.30;;;13.20;99.90;;;;;;5107844;27;20208;-70
2021/12/21 10:44:27;;;;;;;7.53;1.80;;;12.80;99.90;;;;;;5092444;28;20257;-69
2021/12/21 10:46:56;;;;;;;8.27;2.10;;;12.70;99.90;;;;;;5090332;27;21126;-71
2021/12/21 10:49:31;;;;;;;5.93;2.10;;;12.60;99.90;;;;;;5105839;27;20184;-70
2021/12/21 10:52:09;;;;;;;4.93;2.10;;;12.50;99.90;;;;;;5121356;27;20207;-70
2021/12/21 10:54:43;;;;;;;6.10;2.40;;;12.40;99.90;;;;;;5120305;27;20296;-71
2021/12/21 10:57:23;;;;;;;7.17;2.17;;;12.40;99.90;;;;;;5138827;27;20607;-70
2021/12/21 10:59:53;;;;;;;5.60;2.17;;;12.40;99.90;;;;;;5104837;27;20195;-70
2021/12/21 11:02:34;;;;;;;8.33;2.07;;;12.40;99.90;;;;;;5101570;27;20205;-70
2021/12/21 11:05:06;;;;;;;12.67;2.40;;;11.60;99.90;;;;;;5098931;27;20180;-69
2021/12/21 11:08:03;;;;;;;9.80;2.67;;;12.70;99.90;;;;;;5102200;27;20176;-68
2021/12/21 11:10:34;;;;;;;8.33;2.20;;;12.60;99.90;;;;;;5103086;27;20185;-69
2021/12/21 11:13:14;;;;;;;8.83;2.20;;;12.60;99.90;;;;;;5110595;27;20971;-68
2021/12/21 11:15:56;;;;;;;9.13;2.27;;;12.50;99.90;;;;;;5098114;28;20462;-69
2021/12/21 11:18:25;;;;;;;8.17;2.37;;;12.40;99.90;;;;;;5106653;27;20205;-69
2021/12/21 11:20:57;;;;;;;5.27;1.90;;;12.40;99.90;;;;;;5117352;27;20230;-69
2021/12/21 11:23:26;;;;;;;8.23;2.43;;;12.40;99.90;;;;;;5127040;27;20277;-69
2021/12/21 11:25:56;;;;;;;8.17;2.30;;;12.40;99.90;;;;;;5102308;27;20258;-68
2021/12/21 11:28:35;;;;;;;4.47;2.33;;;12.40;99.90;;;;;;5123937;27;20691;-70
2021/12/21 11:31:05;;;;;;;5.67;1.90;;;12.50;99.90;;;;;;5121433;27;20198;-69
2021/12/21 11:33:36;;;;;;;11.63;2.23;;;12.50;99.90;;;;;;5133006;27;20184;-68
2021/12/21 11:38:51;;;;;;;4.27;1.93;;;12.50;99.90;;;;;;5125598;27;20373;-70
2021/12/21 11:41:18;;;;;;;6.17;2.23;;;12.40;99.90;;;;;;5104940;27;20246;-68
2021/12/21 11:44:00;;;;;;;3.57;2.03;;;12.40;99.90;;;;;;5093912;27;20831;-70
2021/12/21 11:46:50;;;;;;;7.10;2.17;;;12.40;99.90;;;;;;5101317;27;20271;-68
2021/12/21 11:49:44;;;;;;;4.73;1.83;;;12.40;99.90;;;;;;5106719;27;20197;-70
2021/12/21 11:52:18;;;;;;;8.97;2.00;;;12.40;99.90;;;;;;5104031;27;20215;-68
2021/12/21 11:55:09;;;;;;;11.87;2.97;;;12.30;99.90;;;;;;5098894;28;20216;-70
2021/12/21 11:57:43;;;;;;;4.47;2.00;;;12.40;99.90;;;;;;5126240;27;20227;-71
2021/12/21 12:00:35;;;;;;;8.60;2.10;;;12.30;99.90;;;;;;5108464;27;20200;-69
2021/12/21 12:03:13;;;;;;;7.03;1.93;;;12.30;99.90;;;;;;5115818;27;20203;-71
2021/12/21 12:05:52;;;;;;;6.37;2.40;;;12.30;99.90;;;;;;5100419;27;21001;-70
2021/12/21 12:08:19;;;;;;;7.30;2.20;;;12.30;99.90;;;;;;5115217;27;20178;-68
2021/12/21 12:10:58;;;;;;;6.83;2.23;;;12.40;99.90;;;;;;5118237;27;20193;-68
2021/12/21 12:13:32;;;;;;;5.77;2.30;;;12.40;99.90;;;;;;5082865;27;21003;-68
2021/12/21 12:16:14;;;;;;;6.73;2.10;;;12.50;99.90;;;;;;5105608;27;20221;-70
2021/12/21 12:18:43;;;;;;;6.23;2.07;;;12.50;99.90;;;;;;5101864;27;20192;-68
2021/12/21 12:21:21;;;;;;;9.30;2.33;;;12.50;99.90;;;;;;5099570;27;20289;-69
2021/12/21 12:24:02;;;;;;;7.40;2.00;;;12.50;99.90;;;;;;5106027;27;20200;-69
2021/12/21 12:26:37;;;;;;;7.10;2.20;;;12.50;99.90;;;;;;5117859;27;20242;-69
2021/12/21 12:29:20;;;;;;;11.30;2.77;;;12.50;99.90;;;;;;5114683;27;20245;-69
2021/12/21 12:32:04;;;;;;;10.53;2.27;;;12.60;99.90;;;;;;5100063;27;20192;-68
2021/12/21 12:34:36;;;;;;;9.13;2.63;;;12.60;99.90;;;;;;5098250;27;21914;-68
2021/12/21 12:37:24;;;;;;;12.87;2.07;;;12.60;99.90;;;;;;5100882;27;20189;-69
2021/12/21 12:39:55;;;;;;;8.93;1.97;;;12.60;99.90;;;;;;5098429;27;20185;-71
2021/12/21 12:42:29;;;;;;;7.30;2.20;;;12.60;99.90;;;;;;5117306;27;20209;-70
2021/12/21 12:45:18;;;;;;;9.93;2.57;;;12.60;99.90;;;;;;5107298;28;20200;-69
2021/12/21 12:47:54;;;;;;;5.80;2.20;;;12.60;99.90;;;;;;5082820;28;20184;-70
2021/12/21 12:50:23;;;;;;;6.43;2.13;;;12.50;99.90;;;;;;5119190;27;20206;-69
2021/12/21 12:53:00;;;;;;;5.53;2.00;;;12.50;99.90;;;;;;5101876;28;20237;-69
2021/12/21 12:55:48;;;;;;;7.70;1.90;;;12.50;99.90;;;;;;5103442;28;20215;-69
2021/12/21 12:58:21;;;;;;;5.30;1.97;;;12.40;99.90;;;;;;5088772;27;20225;-69
2021/12/21 13:01:24;;;;;;;15.40;2.47;;;12.40;99.90;;;;;;5123309;27;20244;-69
2021/12/21 13:03:53;;;;;;;5.23;2.00;;;12.40;99.90;;;;;;5108072;27;20192;-68
2021/12/21 13:06:33;;;;;;;11.40;2.37;;;12.40;99.90;;;;;;5106090;27;20188;-68
2021/12/21 13:09:03;;;;;;;6.10;1.90;;;12.40;99.90;;;;;;5124064;27;20181;-68
2021/12/21 13:11:33;;;;;;;3.93;1.90;;;12.40;99.90;;;;;;5090119;27;20214;-68
2021/12/21 13:14:02;;;;;;;5.70;1.80;;;12.40;99.90;;;;;;5127410;27;20689;-67
2021/12/21 13:16:32;;;;;;;6.13;2.00;;;12.40;99.90;;;;;;5123751;27;20185;-69
2021/12/21 13:19:12;;;;;;;7.37;2.23;;;12.40;99.90;;;;;;5091127;27;20208;-71
2021/12/21 13:22:01;;;;;;;8.73;1.87;;;12.30;99.90;;;;;;5100099;28;20252;-68
2021/12/21 13:24:33;;;;;;;7.77;1.90;;;12.30;99.90;;;;;;5125871;27;20176;-70
2021/12/21 13:27:12;;;;;;;7.57;2.23;;;12.30;99.90;;;;;;5108146;27;20246;-70
2021/12/21 13:29:39;;;;;;;4.13;1.80;;;12.30;99.90;;;;;;5099669;28;20192;-70
2021/12/21 13:32:11;;;;;;;7.27;2.10;;;12.20;99.90;;;;;;5127713;27;20285;-67
2021/12/21 13:34:43;;;;;;;6.63;2.10;;;12.30;99.90;;;;;;5111249;27;20547;-69
2021/12/21 13:37:13;;;;;;;7.70;2.10;;;12.20;99.90;;;;;;5107050;27;20203;-71
2021/12/21 13:39:57;;;;;;;10.23;2.00;;;12.30;99.90;;;;;;5108266;27;20195;-71
2021/12/21 13:42:28;;;;;;;8.47;2.07;;;12.30;99.90;;;;;;5124268;27;20205;-70
2021/12/21 13:45:07;;;;;;;9.37;2.43;;;12.20;99.90;;;;;;5115182;27;20544;-68
2021/12/21 13:47:43;;;;;;;7.30;2.27;;;12.20;99.90;;;;;;5130647;27;20300;-68
2021/12/21 13:50:10;;;;;;;10.10;1.80;;;12.20;99.90;;;;;;5107762;27;20279;-69
2021/12/21 13:52:58;;;;;;;8.17;2.37;;;12.20;99.90;;;;;;5106277;27;20189;-68
2021/12/21 13:55:40;;;;;;;8.83;2.13;;;12.20;99.90;;;;;;5114492;27;20181;-68
2021/12/21 13:58:12;;;;;;;8.70;2.43;;;12.20;99.90;;;;;;5103283;27;20225;-68
2021/12/21 14:00:47;;;;;;;10.43;2.30;;;12.10;99.90;;;;;;5111357;27;20188;-68
2021/12/21 14:05:56;;;;;;;5.30;1.80;;;12.20;99.90;;;;;;5122474;27;20184;-68
2021/12/21 14:08:22;;;;;;;7.03;2.03;;;12.10;99.90;;;;;;5110271;27;20192;-70